»·PEaware :: N508RK KCEC-KSFO

N508RK :: KCEC-KSFO

FLIGHT INFORMATION

Flight Status: Arrived
Operator: Privately registered:
United States
More flights under this callsign
Pilot: Rudy M. (32342)
Aircraft: SOCATA TBM-900
(TBM9)
More flights by this aircraft type
Origin: KCEC McNamara
United States
Destination: KSFO San Francisco Intl
United States
More flights between these airports :: More routes between these airports
Route: +CEC FOT ENI PYE3
File this flight plan on PilotEdge
Remarks:
Altitude:
(Current/Filed)
21,000ft
Speed:
(Current/Filed)
270kts
Departed: 21-Nov-20 01:47 PM
Arrived: 21-Nov-20 03:05 PM
Distance/Time
Traveled:
263nm/1:18
Distance/Time
To Go:
Arrived

Flight Plot

Page will automatically refresh every two minutes.

Flight plan parsing failed; only flown route is shown


Map Options




Map Legend


Flown Route
Filed Route
Departure Airport
Arrival Airport
Navaid (VOR, NDB)
Fix

Horizontal Profiles

Position Reports

Time Latitude Longitude Heading Altitude Ground
Speed
21-Nov-20 13:02 0.000407 0.013975 359 4ft 0kts
21-Nov-20 13:03 0.000407 0.013975 359 4ft 0kts
21-Nov-20 13:04 41.778233 -124.234947 45 58ft 0kts
21-Nov-20 13:05 41.778233 -124.234947 45 58ft 0kts
21-Nov-20 13:06 41.778233 -124.234947 45 58ft 0kts
21-Nov-20 13:07 41.778233 -124.234947 45 58ft 0kts
21-Nov-20 13:08 41.778233 -124.234947 45 58ft 0kts
21-Nov-20 13:09 41.778233 -124.234947 45 58ft 0kts
21-Nov-20 13:10 41.778233 -124.234947 45 58ft 0kts
21-Nov-20 13:11 41.778233 -124.234947 45 58ft 0kts
21-Nov-20 13:12 41.778233 -124.234947 45 58ft 0kts
21-Nov-20 13:13 41.778233 -124.234947 45 58ft 0kts
21-Nov-20 13:14 41.778233 -124.234947 45 58ft 0kts
21-Nov-20 13:15 41.778233 -124.234947 45 58ft 0kts
21-Nov-20 13:16 41.778233 -124.234947 45 58ft 0kts
21-Nov-20 13:17 41.778233 -124.234947 45 58ft 0kts
21-Nov-20 13:18 41.778233 -124.234947 45 58ft 0kts
21-Nov-20 13:19 41.778233 -124.234947 45 58ft 0kts
21-Nov-20 13:20 41.778233 -124.234947 45 58ft 0kts
21-Nov-20 13:21 41.778233 -124.234947 45 58ft 0kts
21-Nov-20 13:22 41.778233 -124.234947 45 58ft 0kts
21-Nov-20 13:23 41.778233 -124.234947 45 58ft 0kts
21-Nov-20 13:24 41.778233 -124.234947 45 58ft 0kts
21-Nov-20 13:25 41.778233 -124.234947 45 58ft 0kts
21-Nov-20 13:26 41.778233 -124.234947 45 58ft 0kts
21-Nov-20 13:27 41.778233 -124.234947 45 58ft 0kts
21-Nov-20 13:28 41.778233 -124.234947 45 58ft 0kts
21-Nov-20 13:29 41.778233 -124.234947 45 58ft 0kts
21-Nov-20 13:30 41.778233 -124.234947 45 58ft 0kts
21-Nov-20 13:31 41.778233 -124.234947 45 58ft 0kts
21-Nov-20 13:32 41.778233 -124.234947 45 58ft 0kts
21-Nov-20 13:33 41.778233 -124.234947 45 58ft 0kts
21-Nov-20 13:34 41.778233 -124.234947 45 58ft 0kts
21-Nov-20 13:35 41.778233 -124.234947 45 58ft 0kts
21-Nov-20 13:36 41.778233 -124.234947 45 58ft 0kts
21-Nov-20 13:37 41.778233 -124.234947 45 58ft 0kts
21-Nov-20 13:38 41.778233 -124.234947 45 58ft 0kts
21-Nov-20 13:39 41.778233 -124.234947 45 58ft 0kts
21-Nov-20 13:40 41.778233 -124.234947 45 58ft 0kts
21-Nov-20 13:41 41.778292 -124.234900 14 58ft 5kts
21-Nov-20 13:42 41.779291 -124.236722 195 59ft 8kts
21-Nov-20 13:43 41.775521 -124.237789 191 56ft 12kts
21-Nov-20 13:44 41.773420 -124.238887 269 55ft 5kts
21-Nov-20 13:45 41.774331 -124.240076 14 54ft 32kts
21-Nov-20 13:46 41.799593 -124.232901 13 1109ft 122kts
21-Nov-20 13:47 41.806132 -124.197986 157 2970ft 155kts
21-Nov-20 13:48 41.788852 -124.233816 226 301ft 101kts
21-Nov-20 13:49 41.773849 -124.240082 156 54ft 5kts
21-Nov-20 13:50 41.773368 -124.239707 291 55ft 0kts
21-Nov-20 13:51 41.773839 -124.240402 27 53ft 12kts
21-Nov-20 13:52 41.796010 -124.234442 8 740ft 126kts
21-Nov-20 13:53 41.836061 -124.222699 15 2713ft 156kts
21-Nov-20 13:54 41.826237 -124.194405 209 4733ft 163kts
21-Nov-20 13:55 41.787180 -124.234868 206 6805ft 195kts
21-Nov-20 13:56 41.732441 -124.239972 180 8821ft 201kts
21-Nov-20 13:57 41.676348 -124.240166 178 10809ft 205kts
21-Nov-20 13:58 41.618889 -124.239904 177 12816ft 206kts
21-Nov-20 13:59 41.562567 -124.239583 178 14796ft 196kts
21-Nov-20 14:00 41.509403 -124.239291 181 16566ft 198kts
21-Nov-20 14:01 41.450898 -124.238948 181 18095ft 218kts
21-Nov-20 14:03 41.389070 -124.238589 182 19589ft 224kts
21-Nov-20 14:04 41.325680 -124.238269 186 20835ft 239kts
21-Nov-20 14:05 41.253192 -124.237815 185 20989ft 280kts
21-Nov-20 14:06 41.170762 -124.237330 185 20983ft 306kts
21-Nov-20 14:07 41.084407 -124.236860 184 20969ft 312kts
21-Nov-20 14:08 40.997341 -124.236376 184 20966ft 313kts
21-Nov-20 14:09 40.910383 -124.235887 184 20965ft 313kts
21-Nov-20 14:10 40.823325 -124.235393 184 20966ft 313kts
21-Nov-20 14:11 40.736023 -124.234899 184 20967ft 313kts
21-Nov-20 14:12 40.656402 -124.226120 170 20967ft 320kts
21-Nov-20 14:13 40.589206 -124.183814 162 20971ft 323kts
21-Nov-20 14:14 40.507390 -124.134948 161 20981ft 321kts
21-Nov-20 14:15 40.426439 -124.086110 160 20946ft 317kts
21-Nov-20 14:16 40.346075 -124.037544 160 20967ft 318kts
21-Nov-20 14:17 40.265722 -123.989198 159 21004ft 319kts
21-Nov-20 14:17 40.198731 -123.948942 160 20999ft 318kts
21-Nov-20 14:19 40.104425 -123.892427 160 20988ft 319kts
21-Nov-20 14:19 40.037405 -123.852406 160 20970ft 317kts
21-Nov-20 14:20 39.956877 -123.804420 160 20946ft 318kts
21-Nov-20 14:22 39.863125 -123.748743 160 20972ft 316kts
21-Nov-20 14:22 39.796131 -123.709000 160 21006ft 318kts
21-Nov-20 14:24 39.702424 -123.653562 159 20931ft 313kts
21-Nov-20 14:24 39.636430 -123.614702 159 20939ft 311kts
21-Nov-20 14:26 39.544514 -123.560598 160 20941ft 309kts
21-Nov-20 14:26 39.479315 -123.522355 160 20954ft 309kts
21-Nov-20 14:27 39.400934 -123.476508 160 20935ft 308kts
21-Nov-20 14:28 39.322516 -123.430721 160 20952ft 309kts
21-Nov-20 14:29 39.243961 -123.384941 160 20927ft 309kts
21-Nov-20 14:30 39.165643 -123.339416 160 20917ft 307kts
21-Nov-20 14:31 39.087420 -123.293828 158 20938ft 310kts
21-Nov-20 14:32 39.007514 -123.255841 165 20911ft 305kts
21-Nov-20 14:33 38.927675 -123.221467 165 20941ft 305kts
21-Nov-20 14:34 38.846705 -123.187127 165 20946ft 306kts
21-Nov-20 14:35 38.765797 -123.153081 165 20940ft 306kts
21-Nov-20 14:36 38.684818 -123.119123 166 20928ft 305kts
21-Nov-20 14:37 38.604418 -123.085510 166 20963ft 305kts
21-Nov-20 14:38 38.523575 -123.051760 166 20974ft 307kts
21-Nov-20 14:39 38.442599 -123.018010 166 20952ft 306kts
21-Nov-20 14:40 38.361521 -122.984311 166 20959ft 307kts
21-Nov-20 14:41 38.280354 -122.950649 166 20928ft 306kts
21-Nov-20 14:42 38.199328 -122.917136 166 20953ft 306kts
21-Nov-20 14:43 38.116755 -122.883286 167 20048ft 325kts
21-Nov-20 14:44 38.028762 -122.845637 166 18178ft 339kts
21-Nov-20 14:45 37.940172 -122.807371 162 16204ft 326kts
21-Nov-20 14:46 37.856303 -122.770905 161 13692ft 313kts
21-Nov-20 14:47 37.774817 -122.735575 161 11201ft 308kts
21-Nov-20 14:48 37.695780 -122.701463 162 9209ft 272kts
21-Nov-20 14:49 37.626246 -122.671532 161 9009ft 253kts
21-Nov-20 14:50 37.560047 -122.643129 160 9008ft 254kts
21-Nov-20 14:51 37.492124 -122.613990 159 9007ft 259kts
21-Nov-20 14:52 37.423670 -122.583167 148 9005ft 261kts
21-Nov-20 14:53 37.399110 -122.502388 86 8705ft 268kts
21-Nov-20 14:54 37.396820 -122.405770 90 7229ft 280kts
21-Nov-20 14:55 37.394574 -122.323136 76 5212ft 210kts
21-Nov-20 14:56 37.436403 -122.286126 23 4030ft 160kts
21-Nov-20 14:57 37.477461 -122.263297 23 3705ft 187kts
21-Nov-20 14:58 37.524695 -122.236783 23 2056ft 177kts
21-Nov-20 14:59 37.563946 -122.257138 340 1780ft 152kts
21-Nov-20 15:00 37.586125 -122.292366 298 1135ft 111kts
21-Nov-20 15:01 37.597897 -122.321562 301 719ft 94kts
21-Nov-20 15:02 37.610694 -122.350374 301 204ft 96kts
21-Nov-20 15:03 37.620582 -122.373940 297 9ft 43kts
21-Nov-20 15:04 37.625552 -122.383658 356 9ft 4kts
21-Nov-20 15:05 37.627396 -122.385121 29 9ft 9kts
21-Nov-20 15:06 37.627704 -122.384777 72 9ft 0kts
21-Nov-20 15:07 37.627704 -122.384777 72 9ft 0kts
21-Nov-20 15:08 37.627704 -122.384777 72 9ft 0kts
21-Nov-20 15:09 37.627704 -122.384777 72 9ft 0kts
21-Nov-20 15:10 37.627704 -122.384777 72 9ft 0kts
21-Nov-20 15:11 37.627704 -122.384777 72 9ft 0kts
21-Nov-20 15:12 37.627704 -122.384777 72 9ft 0kts

Navigation Log

Ident Type
Flight plan parsing failed, navigation log unavailable